sensor_id;sensor_type;location;lat;lon;timestamp;pressure;altitude;pressure_sealevel;temperature;humidity
66381;BME280;53177;52.648;1.214;2024-01-27T00:01:35;102724.88;;;2.42;100.00
66381;BME280;53177;52.648;1.214;2024-01-27T00:04:01;102718.97;;;2.47;100.00
66381;BME280;53177;52.648;1.214;2024-01-27T00:06:28;102723.38;;;2.48;100.00
66381;BME280;53177;52.648;1.214;2024-01-27T00:08:53;102719.22;;;2.53;100.00
66381;BME280;53177;52.648;1.214;2024-01-27T00:11:19;102715.59;;;2.49;100.00
66381;BME280;53177;52.648;1.214;2024-01-27T00:13:45;102720.81;;;2.49;100.00
66381;BME280;53177;52.648;1.214;2024-01-27T00:16:10;102726.84;;;2.48;100.00
66381;BME280;53177;52.648;1.214;2024-01-27T00:18:36;102722.41;;;2.45;100.00
66381;BME280;53177;52.648;1.214;2024-01-27T00:21:06;102721.38;;;2.42;100.00
66381;BME280;53177;52.648;1.214;2024-01-27T00:23:32;102727.63;;;2.45;100.00
66381;BME280;53177;52.648;1.214;2024-01-27T00:25:58;102720.59;;;2.44;100.00
66381;BME280;53177;52.648;1.214;2024-01-27T00:28:24;102714.81;;;2.52;100.00
66381;BME280;53177;52.648;1.214;2024-01-27T00:30:49;102712.97;;;2.49;100.00
66381;BME280;53177;52.648;1.214;2024-01-27T00:33:14;102713.88;;;2.50;100.00
66381;BME280;53177;52.648;1.214;2024-01-27T00:35:40;102720.03;;;2.52;100.00
66381;BME280;53177;52.648;1.214;2024-01-27T00:38:05;102714.44;;;2.42;100.00
66381;BME280;53177;52.648;1.214;2024-01-27T00:40:32;102708.41;;;2.43;100.00
66381;BME280;53177;52.648;1.214;2024-01-27T00:42:57;102707.19;;;2.35;100.00
66381;BME280;53177;52.648;1.214;2024-01-27T00:45:22;102701.19;;;2.38;100.00
66381;BME280;53177;52.648;1.214;2024-01-27T00:47:49;102709.03;;;2.38;100.00
66381;BME280;53177;52.648;1.214;2024-01-27T00:50:15;102700.75;;;2.48;100.00
66381;BME280;53177;52.648;1.214;2024-01-27T00:52:41;102696.16;;;2.42;100.00
66381;BME280;53177;52.648;1.214;2024-01-27T00:55:07;102712.44;;;2.37;100.00
66381;BME280;53177;52.648;1.214;2024-01-27T00:57:32;102714.00;;;2.32;100.00
66381;BME280;53177;52.648;1.214;2024-01-27T00:59:57;102722.91;;;2.37;100.00
66381;BME280;53177;52.648;1.214;2024-01-27T01:02:23;102715.91;;;2.36;100.00
66381;BME280;53177;52.648;1.214;2024-01-27T01:04:49;102704.00;;;2.42;100.00
66381;BME280;53177;52.648;1.214;2024-01-27T01:07:14;102695.19;;;2.40;100.00
66381;BME280;53177;52.648;1.214;2024-01-27T01:09:39;102691.66;;;2.38;100.00
66381;BME280;53177;52.648;1.214;2024-01-27T01:12:05;102694.88;;;2.33;100.00
66381;BME280;53177;52.648;1.214;2024-01-27T01:14:31;102702.53;;;2.28;100.00
66381;BME280;53177;52.648;1.214;2024-01-27T01:16:56;102697.22;;;2.27;100.00
66381;BME280;53177;52.648;1.214;2024-01-27T01:19:21;102691.81;;;2.22;100.00
66381;BME280;53177;52.648;1.214;2024-01-27T01:21:47;102694.59;;;2.25;100.00
66381;BME280;53177;52.648;1.214;2024-01-27T01:24:13;102689.47;;;2.28;100.00
66381;BME280;53177;52.648;1.214;2024-01-27T01:26:38;102674.16;;;2.36;100.00
66381;BME280;53177;52.648;1.214;2024-01-27T01:29:03;102687.19;;;2.36;100.00
66381;BME280;53177;52.648;1.214;2024-01-27T01:31:29;102696.78;;;2.37;100.00
66381;BME280;53177;52.648;1.214;2024-01-27T01:33:54;102701.16;;;2.36;100.00
66381;BME280;53177;52.648;1.214;2024-01-27T01:36:20;102692.34;;;2.34;100.00
66381;BME280;53177;52.648;1.214;2024-01-27T01:38:45;102684.75;;;2.40;100.00
66381;BME280;53177;52.648;1.214;2024-01-27T01:41:12;102679.53;;;2.40;100.00
66381;BME280;53177;52.648;1.214;2024-01-27T01:43:37;102686.75;;;2.46;100.00
66381;BME280;53177;52.648;1.214;2024-01-27T01:46:03;102702.91;;;2.37;100.00
66381;BME280;53177;52.648;1.214;2024-01-27T01:48:29;102701.88;;;2.34;100.00
66381;BME280;53177;52.648;1.214;2024-01-27T01:50:56;102697.63;;;2.36;100.00
66381;BME280;53177;52.648;1.214;2024-01-27T01:53:22;102701.28;;;2.39;100.00
66381;BME280;53177;52.648;1.214;2024-01-27T01:55:49;102711.59;;;2.36;100.00
66381;BME280;53177;52.648;1.214;2024-01-27T01:58:15;102723.78;;;2.37;100.00
66381;BME280;53177;52.648;1.214;2024-01-27T02:00:42;102725.78;;;2.43;100.00
66381;BME280;53177;52.648;1.214;2024-01-27T02:03:13;102723.31;;;2.46;100.00
66381;BME280;53177;52.648;1.214;2024-01-27T02:05:39;102724.88;;;2.42;100.00
66381;BME280;53177;52.648;1.214;2024-01-27T02:08:05;102718.56;;;2.37;100.00
66381;BME280;53177;52.648;1.214;2024-01-27T02:10:31;102714.44;;;2.42;100.00
66381;BME280;53177;52.648;1.214;2024-01-27T02:13:22;102709.22;;;2.42;100.00
66381;BME280;53177;52.648;1.214;2024-01-27T02:15:49;102714.44;;;2.42;100.00
66381;BME280;53177;52.648;1.214;2024-01-27T02:18:15;102712.66;;;2.41;100.00
66381;BME280;53177;52.648;1.214;2024-01-27T02:20:41;102710.69;;;2.36;100.00
66381;BME280;53177;52.648;1.214;2024-01-27T02:23:06;102707.38;;;2.40;100.00
66381;BME280;53177;52.648;1.214;2024-01-27T02:25:32;102709.03;;;2.38;100.00
66381;BME280;53177;52.648;1.214;2024-01-27T02:27:58;102711.25;;;2.29;100.00
66381;BME280;53177;52.648;1.214;2024-01-27T02:30:24;102716.41;;;2.27;100.00
66381;BME280;53177;52.648;1.214;2024-01-27T02:32:49;102708.69;;;2.30;100.00
66381;BME280;53177;52.648;1.214;2024-01-27T02:35:15;102700.81;;;2.29;100.00
66381;BME280;53177;52.648;1.214;2024-01-27T02:37:41;102689.66;;;2.33;100.00
66381;BME280;53177;52.648;1.214;2024-01-27T02:40:08;102693.25;;;2.35;100.00
66381;BME280;53177;52.648;1.214;2024-01-27T02:42:34;102699.91;;;2.28;100.00
66381;BME280;53177;52.648;1.214;2024-01-27T02:45:00;102704.81;;;2.21;100.00
66381;BME280;53177;52.648;1.214;2024-01-27T02:47:25;102708.66;;;2.29;100.00
66381;BME280;53177;52.648;1.214;2024-01-27T02:49:50;102709.94;;;2.19;100.00
66381;BME280;53177;52.648;1.214;2024-01-27T02:52:16;102713.34;;;2.17;100.00
66381;BME280;53177;52.648;1.214;2024-01-27T02:54:41;102712.50;;;2.18;100.00
66381;BME280;53177;52.648;1.214;2024-01-27T02:57:06;102707.22;;;2.16;100.00
66381;BME280;53177;52.648;1.214;2024-01-27T02:59:32;102720.34;;;2.18;100.00
66381;BME280;53177;52.648;1.214;2024-01-27T03:01:57;102715.25;;;2.21;100.00
66381;BME280;53177;52.648;1.214;2024-01-27T03:04:23;102723.81;;;2.18;100.00
66381;BME280;53177;52.648;1.214;2024-01-27T03:06:48;102733.09;;;2.12;100.00
66381;BME280;53177;52.648;1.214;2024-01-27T03:09:13;102723.31;;;2.06;100.00
66381;BME280;53177;52.648;1.214;2024-01-27T03:11:39;102724.00;;;2.02;100.00
66381;BME280;53177;52.648;1.214;2024-01-27T03:14:04;102719.66;;;2.03;100.00
66381;BME280;53177;52.648;1.214;2024-01-27T03:16:30;102715.53;;;2.08;100.00
66381;BME280;53177;52.648;1.214;2024-01-27T03:18:55;102712.91;;;2.08;100.00
66381;BME280;53177;52.648;1.214;2024-01-27T03:21:21;102715.34;;;2.03;100.00
66381;BME280;53177;52.648;1.214;2024-01-27T03:23:47;102718.56;;;1.98;100.00
66381;BME280;53177;52.648;1.214;2024-01-27T03:26:12;102718.31;;;1.91;100.00
66381;BME280;53177;52.648;1.214;2024-01-27T03:28:38;102720.63;;;1.85;100.00
66381;BME280;53177;52.648;1.214;2024-01-27T03:31:03;102718.69;;;1.81;100.00
66381;BME280;53177;52.648;1.214;2024-01-27T03:33:29;102707.06;;;1.73;100.00
66381;BME280;53177;52.648;1.214;2024-01-27T03:35:56;102711.25;;;1.70;100.00
66381;BME280;53177;52.648;1.214;2024-01-27T03:38:21;102702.78;;;1.75;100.00
66381;BME280;53177;52.648;1.214;2024-01-27T03:40:46;102710.00;;;1.81;100.00
66381;BME280;53177;52.648;1.214;2024-01-27T03:43:13;102698.00;;;1.84;100.00
66381;BME280;53177;52.648;1.214;2024-01-27T03:45:39;102704.84;;;1.82;100.00
66381;BME280;53177;52.648;1.214;2024-01-27T03:48:06;102704.03;;;1.83;100.00
66381;BME280;53177;52.648;1.214;2024-01-27T03:50:31;102697.00;;;1.82;100.00
66381;BME280;53177;52.648;1.214;2024-01-27T03:52:58;102701.53;;;1.86;100.00
66381;BME280;53177;52.648;1.214;2024-01-27T03:55:23;102701.28;;;1.80;100.00
66381;BME280;53177;52.648;1.214;2024-01-27T03:57:49;102689.88;;;1.78;100.00
66381;BME280;53177;52.648;1.214;2024-01-27T04:00:15;102699.50;;;1.79;100.00
66381;BME280;53177;52.648;1.214;2024-01-27T04:02:40;102704.63;;;1.78;100.00
66381;BME280;53177;52.648;1.214;2024-01-27T04:05:06;102702.88;;;1.77;100.00
66381;BME280;53177;52.648;1.214;2024-01-27T04:07:31;102703.03;;;1.81;100.00
66381;BME280;53177;52.648;1.214;2024-01-27T04:09:58;102704.84;;;1.82;100.00
66381;BME280;53177;52.648;1.214;2024-01-27T04:12:23;102705.94;;;1.87;100.00
66381;BME280;53177;52.648;1.214;2024-01-27T04:14:49;102709.28;;;1.85;100.00
66381;BME280;53177;52.648;1.214;2024-01-27T04:17:14;102701.41;;;1.83;100.00
66381;BME280;53177;52.648;1.214;2024-01-27T04:19:40;102710.06;;;1.82;100.00
66381;BME280;53177;52.648;1.214;2024-01-27T04:22:05;102704.72;;;1.79;100.00
66381;BME280;53177;52.648;1.214;2024-01-27T04:24:31;102708.97;;;1.77;100.00
66381;BME280;53177;52.648;1.214;2024-01-27T04:26:58;102701.22;;;1.79;100.00
66381;BME280;53177;52.648;1.214;2024-01-27T04:29:25;102701.34;;;1.82;100.00
66381;BME280;53177;52.648;1.214;2024-01-27T04:31:50;102702.09;;;1.79;100.00
66381;BME280;53177;52.648;1.214;2024-01-27T04:34:16;102693.72;;;1.86;100.00
66381;BME280;53177;52.648;1.214;2024-01-27T04:36:41;102691.75;;;1.81;100.00
66381;BME280;53177;52.648;1.214;2024-01-27T04:39:07;102700.53;;;1.83;100.00
66381;BME280;53177;52.648;1.214;2024-01-27T04:41:32;102690.16;;;1.84;100.00
66381;BME280;53177;52.648;1.214;2024-01-27T04:43:57;102705.06;;;1.87;100.00
66381;BME280;53177;52.648;1.214;2024-01-27T04:46:24;102711.22;;;1.89;100.00
66381;BME280;53177;52.648;1.214;2024-01-27T04:48:50;102712.88;;;1.87;100.00
66381;BME280;53177;52.648;1.214;2024-01-27T04:51:17;102715.00;;;1.95;100.00
66381;BME280;53177;52.648;1.214;2024-01-27T04:53:42;102717.31;;;1.89;100.00
66381;BME280;53177;52.648;1.214;2024-01-27T04:56:08;102719.00;;;1.87;100.00
66381;BME280;53177;52.648;1.214;2024-01-27T04:58:35;102730.31;;;1.88;100.00
66381;BME280;53177;52.648;1.214;2024-01-27T05:01:03;102732.75;;;1.85;100.00
66381;BME280;53177;52.648;1.214;2024-01-27T05:03:29;102720.44;;;1.81;100.00
66381;BME280;53177;52.648;1.214;2024-01-27T05:05:54;102721.16;;;1.78;100.00
66381;BME280;53177;52.648;1.214;2024-01-27T05:08:20;102725.66;;;1.81;100.00
66381;BME280;53177;52.648;1.214;2024-01-27T05:10:45;102729.97;;;1.80;100.00
66381;BME280;53177;52.648;1.214;2024-01-27T05:13:11;102721.38;;;1.83;100.00
66381;BME280;53177;52.648;1.214;2024-01-27T05:15:36;102717.06;;;1.83;100.00
66381;BME280;53177;52.648;1.214;2024-01-27T05:18:02;102719.81;;;1.86;100.00
66381;BME280;53177;52.648;1.214;2024-01-27T05:20:28;102717.28;;;1.88;100.00
66381;BME280;53177;52.648;1.214;2024-01-27T05:22:54;102717.84;;;1.81;100.00
66381;BME280;53177;52.648;1.214;2024-01-27T05:25:19;102718.56;;;1.78;100.00
66381;BME280;53177;52.648;1.214;2024-01-27T05:27:45;102721.94;;;1.76;100.00
66381;BME280;53177;52.648;1.214;2024-01-27T05:30:11;102719.59;;;1.82;100.00
66381;BME280;53177;52.648;1.214;2024-01-27T05:32:37;102723.22;;;1.85;100.00
66381;BME280;53177;52.648;1.214;2024-01-27T05:35:02;102719.13;;;1.90;100.00
66381;BME280;53177;52.648;1.214;2024-01-27T05:37:28;102711.28;;;1.90;100.00
66381;BME280;53177;52.648;1.214;2024-01-27T05:39:54;102716.38;;;1.87;100.00
66381;BME280;53177;52.648;1.214;2024-01-27T05:42:21;102713.91;;;1.90;100.00
66381;BME280;53177;52.648;1.214;2024-01-27T05:44:46;102703.56;;;1.92;100.00
66381;BME280;53177;52.648;1.214;2024-01-27T05:47:12;102696.66;;;1.94;100.00
66381;BME280;53177;52.648;1.214;2024-01-27T05:49:39;102698.38;;;1.93;100.00
66381;BME280;53177;52.648;1.214;2024-01-27T05:52:05;102688.84;;;1.94;100.00
66381;BME280;53177;52.648;1.214;2024-01-27T05:54:30;102693.94;;;1.91;100.00
66381;BME280;53177;52.648;1.214;2024-01-27T05:56:55;102698.00;;;1.84;100.00
66381;BME280;53177;52.648;1.214;2024-01-27T05:59:21;102696.97;;;1.81;100.00
66381;BME280;53177;52.648;1.214;2024-01-27T06:01:47;102701.28;;;1.80;100.00
66381;BME280;53177;52.648;1.214;2024-01-27T06:04:13;102697.34;;;1.71;100.00
66381;BME280;53177;52.648;1.214;2024-01-27T06:06:38;102693.84;;;1.70;100.00
66381;BME280;53177;52.648;1.214;2024-01-27T06:09:04;102684.31;;;1.71;100.00
66381;BME280;53177;52.648;1.214;2024-01-27T06:11:30;102686.75;;;1.66;100.00
66381;BME280;53177;52.648;1.214;2024-01-27T06:13:55;102690.22;;;1.67;100.00
66381;BME280;53177;52.648;1.214;2024-01-27T06:16:21;102679.66;;;1.64;100.00
66381;BME280;53177;52.648;1.214;2024-01-27T06:18:48;102686.66;;;1.65;100.00
66381;BME280;53177;52.648;1.214;2024-01-27T06:21:13;102682.94;;;1.60;100.00
66381;BME280;53177;52.648;1.214;2024-01-27T06:23:39;102686.53;;;1.62;100.00
66381;BME280;53177;52.648;1.214;2024-01-27T06:26:08;102680.63;;;1.66;100.00
66381;BME280;53177;52.648;1.214;2024-01-27T06:28:34;102683.03;;;1.61;100.00
66381;BME280;53177;52.648;1.214;2024-01-27T06:31:03;102687.25;;;1.59;100.00
66381;BME280;53177;52.648;1.214;2024-01-27T06:33:29;102686.44;;;1.60;100.00
66381;BME280;53177;52.648;1.214;2024-01-27T06:35:54;102695.09;;;1.59;100.00
66381;BME280;53177;52.648;1.214;2024-01-27T06:38:20;102701.00;;;1.55;100.00
66381;BME280;53177;52.648;1.214;2024-01-27T06:40:45;102699.34;;;1.57;100.00
66381;BME280;53177;52.648;1.214;2024-01-27T06:43:12;102694.94;;;1.56;100.00
66381;BME280;53177;52.648;1.214;2024-01-27T06:45:38;102691.41;;;1.54;100.00
66381;BME280;53177;52.648;1.214;2024-01-27T06:48:05;102693.56;;;1.45;100.00
66381;BME280;53177;52.648;1.214;2024-01-27T06:50:31;102690.06;;;1.44;100.00
66381;BME280;53177;52.648;1.214;2024-01-27T06:52:56;102691.25;;;1.51;100.00
66381;BME280;53177;52.648;1.214;2024-01-27T06:55:22;102686.19;;;1.54;100.00
66381;BME280;53177;52.648;1.214;2024-01-27T06:57:47;102686.22;;;1.56;100.00
66381;BME280;53177;52.648;1.214;2024-01-27T07:00:13;102682.13;;;1.61;100.00
66381;BME280;53177;52.648;1.214;2024-01-27T07:02:40;102689.88;;;1.59;100.00
66381;BME280;53177;52.648;1.214;2024-01-27T07:05:09;102688.84;;;1.56;100.00
66381;BME280;53177;52.648;1.214;2024-01-27T07:07:35;102700.13;;;1.55;100.00
66381;BME280;53177;52.648;1.214;2024-01-27T07:10:01;102705.03;;;1.48;100.00
66381;BME280;53177;52.648;1.214;2024-01-27T07:12:27;102703.28;;;1.48;100.00
66381;BME280;53177;52.648;1.214;2024-01-27T07:14:53;102690.16;;;1.46;100.00
66381;BME280;53177;52.648;1.214;2024-01-27T07:17:20;102703.84;;;1.42;100.00
66381;BME280;53177;52.648;1.214;2024-01-27T07:19:46;102709.97;;;1.42;100.00
66381;BME280;53177;52.648;1.214;2024-01-27T07:22:12;102714.38;;;1.43;100.00
66381;BME280;53177;52.648;1.214;2024-01-27T07:24:38;102723.22;;;1.47;100.00
66381;BME280;53177;52.648;1.214;2024-01-27T07:27:03;102724.97;;;1.48;100.00
66381;BME280;53177;52.648;1.214;2024-01-27T07:29:29;102726.72;;;1.48;100.00
66381;BME280;53177;52.648;1.214;2024-01-27T07:31:55;102720.88;;;1.53;100.00
66381;BME280;53177;52.648;1.214;2024-01-27T07:34:21;102730.28;;;1.50;100.00
66381;BME280;53177;52.648;1.214;2024-01-27T07:36:46;102731.94;;;1.48;100.00
66381;BME280;53177;52.648;1.214;2024-01-27T07:39:14;102739.81;;;1.49;100.00
66381;BME280;53177;52.648;1.214;2024-01-27T07:41:40;102734.06;;;1.56;100.00
66381;BME280;53177;52.648;1.214;2024-01-27T07:44:13;102743.66;;;1.57;100.00
66381;BME280;53177;52.648;1.214;2024-01-27T07:46:40;102741.16;;;1.59;100.00
66381;BME280;53177;52.648;1.214;2024-01-27T07:49:08;102753.56;;;1.64;100.00
66381;BME280;53177;52.648;1.214;2024-01-27T07:51:34;102758.69;;;1.63;100.00
66381;BME280;53177;52.648;1.214;2024-01-27T07:54:00;102753.84;;;1.70;100.00
66381;BME280;53177;52.648;1.214;2024-01-27T07:56:26;102758.00;;;1.67;100.00
66381;BME280;53177;52.648;1.214;2024-01-27T07:58:51;102753.56;;;1.64;100.00
66381;BME280;53177;52.648;1.214;2024-01-27T08:01:18;102755.34;;;1.65;100.00
66381;BME280;53177;52.648;1.214;2024-01-27T08:03:44;102751.72;;;1.62;100.00
66381;BME280;53177;52.648;1.214;2024-01-27T08:06:17;102756.25;;;1.66;100.00
66381;BME280;53177;52.648;1.214;2024-01-27T08:08:47;102759.41;;;1.59;100.00
66381;BME280;53177;52.648;1.214;2024-01-27T08:11:15;102754.19;;;1.59;100.00
66381;BME280;53177;52.648;1.214;2024-01-27T08:13:41;102748.75;;;1.54;100.00
66381;BME280;53177;52.648;1.214;2024-01-27T08:16:08;102739.28;;;1.56;100.00
66381;BME280;53177;52.648;1.214;2024-01-27T08:18:41;102740.94;;;1.54;100.00
66381;BME280;53177;52.648;1.214;2024-01-27T08:21:09;102742.00;;;1.59;100.00
66381;BME280;53177;52.648;1.214;2024-01-27T08:23:34;102737.66;;;1.58;100.00
66381;BME280;53177;52.648;1.214;2024-01-27T08:26:00;102734.28;;;1.61;100.00
66381;BME280;53177;52.648;1.214;2024-01-27T08:28:25;102743.91;;;1.62;100.00
66381;BME280;53177;52.648;1.214;2024-01-27T08:30:51;102739.50;;;1.61;100.00
66381;BME280;53177;52.648;1.214;2024-01-27T08:33:16;102748.44;;;1.66;100.00
66381;BME280;53177;52.648;1.214;2024-01-27T08:35:42;102753.09;;;1.73;100.00
66381;BME280;53177;52.648;1.214;2024-01-27T08:38:07;102757.47;;;1.74;100.00
66381;BME280;53177;52.648;1.214;2024-01-27T08:40:35;102754.03;;;1.75;100.00
66381;BME280;53177;52.648;1.214;2024-01-27T08:43:01;102758.59;;;1.79;100.00
66381;BME280;53177;52.648;1.214;2024-01-27T08:45:27;102767.53;;;1.84;100.00
66381;BME280;53177;52.648;1.214;2024-01-27T08:47:53;102769.44;;;1.88;100.00
66381;BME280;53177;52.648;1.214;2024-01-27T08:50:18;102764.22;;;2.07;100.00
66381;BME280;53177;52.648;1.214;2024-01-27T08:52:44;102769.44;;;2.07;100.00
66381;BME280;53177;52.648;1.214;2024-01-27T08:55:11;102767.03;;;2.12;100.00
66381;BME280;53177;52.648;1.214;2024-01-27T08:57:37;102778.56;;;2.17;100.00
66381;BME280;53177;52.648;1.214;2024-01-27T09:00:04;102769.41;;;2.26;100.00
66381;BME280;53177;52.648;1.214;2024-01-27T09:02:30;102774.09;;;2.33;100.00
66381;BME280;53177;52.648;1.214;2024-01-27T09:04:55;102771.63;;;2.36;100.00
66381;BME280;53177;52.648;1.214;2024-01-27T09:07:21;102763.06;;;2.40;100.00
66381;BME280;53177;52.648;1.214;2024-01-27T09:09:46;102769.53;;;2.49;100.00
66381;BME280;53177;52.648;1.214;2024-01-27T09:12:12;102769.81;;;2.55;100.00
66381;BME280;53177;52.648;1.214;2024-01-27T09:14:37;102777.13;;;2.63;100.00
66381;BME280;53177;52.648;1.214;2024-01-27T09:17:03;102777.31;;;2.68;100.00
66381;BME280;53177;52.648;1.214;2024-01-27T09:19:28;102775.28;;;2.81;100.00
66381;BME280;53177;52.648;1.214;2024-01-27T09:21:54;102771.03;;;2.83;100.00
66381;BME280;53177;52.648;1.214;2024-01-27T09:24:19;102773.09;;;2.92;100.00
66381;BME280;53177;52.648;1.214;2024-01-27T09:26:45;102785.78;;;3.04;100.00
66381;BME280;53177;52.648;1.214;2024-01-27T09:29:10;102786.22;;;3.14;100.00
66381;BME280;53177;52.648;1.214;2024-01-27T09:31:36;102773.34;;;3.19;100.00
66381;BME280;53177;52.648;1.214;2024-01-27T09:34:01;102774.84;;;3.34;100.00
66381;BME280;53177;52.648;1.214;2024-01-27T09:36:27;102777.69;;;3.40;100.00
66381;BME280;53177;52.648;1.214;2024-01-27T09:38:52;102771.84;;;3.46;100.00
66381;BME280;53177;52.648;1.214;2024-01-27T09:41:21;102779.88;;;3.51;100.00
66381;BME280;53177;52.648;1.214;2024-01-27T09:43:46;102780.50;;;3.67;100.00
66381;BME280;53177;52.648;1.214;2024-01-27T09:46:15;102781.63;;;3.74;100.00
66381;BME280;53177;52.648;1.214;2024-01-27T09:48:41;102791.44;;;3.79;100.00
66381;BME280;53177;52.648;1.214;2024-01-27T09:51:08;102786.53;;;3.88;100.00
66381;BME280;53177;52.648;1.214;2024-01-27T09:53:36;102779.94;;;3.98;100.00
66381;BME280;53177;52.648;1.214;2024-01-27T09:56:03;102789.56;;;3.99;99.59
66381;BME280;53177;52.648;1.214;2024-01-27T09:58:31;102785.78;;;4.15;98.63
66381;BME280;53177;52.648;1.214;2024-01-27T10:01:00;102781.91;;;4.27;98.04
66381;BME280;53177;52.648;1.214;2024-01-27T10:03:31;102781.34;;;4.36;97.34
66381;BME280;53177;52.648;1.214;2024-01-27T10:05:57;102790.31;;;4.43;96.05
66381;BME280;53177;52.648;1.214;2024-01-27T10:08:23;102788.06;;;4.53;94.92
66381;BME280;53177;52.648;1.214;2024-01-27T10:10:56;102797.22;;;4.66;96.65
66381;BME280;53177;52.648;1.214;2024-01-27T10:13:21;102794.84;;;4.72;94.40
66381;BME280;53177;52.648;1.214;2024-01-27T10:16:05;102801.06;;;4.75;94.82
66381;BME280;53177;52.648;1.214;2024-01-27T10:18:32;102796.09;;;4.83;95.18
66381;BME280;53177;52.648;1.214;2024-01-27T10:20:58;102798.81;;;4.86;95.55
66381;BME280;53177;52.648;1.214;2024-01-27T10:23:24;102798.81;;;4.86;94.33
66381;BME280;53177;52.648;1.214;2024-01-27T10:25:51;102798.50;;;5.02;94.78
66381;BME280;53177;52.648;1.214;2024-01-27T10:28:17;102800.41;;;5.08;94.10
66381;BME280;53177;52.648;1.214;2024-01-27T10:30:46;102800.63;;;4.88;94.42
66381;BME280;53177;52.648;1.214;2024-01-27T10:33:14;102787.25;;;4.81;95.97
66381;BME280;53177;52.648;1.214;2024-01-27T10:35:43;102780.94;;;4.74;96.37
66381;BME280;53177;52.648;1.214;2024-01-27T10:38:08;102787.50;;;4.62;98.40
66381;BME280;53177;52.648;1.214;2024-01-27T10:40:36;102788.44;;;4.64;97.98
66381;BME280;53177;52.648;1.214;2024-01-27T10:43:07;102792.16;;;4.70;98.37
66381;BME280;53177;52.648;1.214;2024-01-27T10:45:40;102785.09;;;4.68;98.93
66381;BME280;53177;52.648;1.214;2024-01-27T10:48:07;102795.38;;;4.62;99.26
66381;BME280;53177;52.648;1.214;2024-01-27T10:50:35;102783.56;;;4.49;99.29
66381;BME280;53177;52.648;1.214;2024-01-27T10:53:03;102787.00;;;4.48;100.00
66381;BME280;53177;52.648;1.214;2024-01-27T10:55:30;102789.34;;;4.40;100.00
66381;BME280;53177;52.648;1.214;2024-01-27T10:57:58;102785.00;;;4.41;100.00
66381;BME280;53177;52.648;1.214;2024-01-27T11:00:27;102780.81;;;4.46;100.00
66381;BME280;53177;52.648;1.214;2024-01-27T11:02:57;102775.63;;;4.48;100.00
66381;BME280;53177;52.648;1.214;2024-01-27T11:05:24;102771.38;;;4.51;100.00
66381;BME280;53177;52.648;1.214;2024-01-27T11:07:50;102775.78;;;4.52;100.00
66381;BME280;53177;52.648;1.214;2024-01-27T11:10:17;102783.25;;;4.65;100.00
66381;BME280;53177;52.648;1.214;2024-01-27T11:12:43;102778.75;;;4.61;100.00
66381;BME280;53177;52.648;1.214;2024-01-27T11:15:09;102776.22;;;4.64;100.00
66381;BME280;53177;52.648;1.214;2024-01-27T11:17:39;102773.69;;;4.67;100.00
66381;BME280;53177;52.648;1.214;2024-01-27T11:20:07;102772.91;;;4.70;100.00
66381;BME280;53177;52.648;1.214;2024-01-27T11:22:35;102769.16;;;4.87;100.00
66381;BME280;53177;52.648;1.214;2024-01-27T11:27:32;102766.50;;;5.14;99.27
66381;BME280;53177;52.648;1.214;2024-01-27T11:29:57;102747.63;;;5.24;99.28
66381;BME280;53177;52.648;1.214;2024-01-27T11:32:23;102751.31;;;5.30;98.72
66381;BME280;53177;52.648;1.214;2024-01-27T11:34:49;102759.28;;;5.33;97.53
66381;BME280;53177;52.648;1.214;2024-01-27T11:37:16;102762.09;;;5.39;97.90
66381;BME280;53177;52.648;1.214;2024-01-27T11:39:42;102761.50;;;5.48;97.63
66381;BME280;53177;52.648;1.214;2024-01-27T11:42:11;102774.59;;;5.47;98.24
66381;BME280;53177;52.648;1.214;2024-01-27T11:44:39;102761.50;;;5.48;97.42
66381;BME280;53177;52.648;1.214;2024-01-27T11:47:05;102750.56;;;5.61;97.78
66381;BME280;53177;52.648;1.214;2024-01-27T11:49:30;102745.56;;;5.70;96.28
66381;BME280;53177;52.648;1.214;2024-01-27T11:51:56;102746.38;;;5.69;96.59
66381;BME280;53177;52.648;1.214;2024-01-27T11:54:21;102742.94;;;5.70;97.08
66381;BME280;53177;52.648;1.214;2024-01-27T11:56:47;102734.22;;;5.71;96.87
66381;BME280;53177;52.648;1.214;2024-01-27T11:59:12;102721.91;;;5.69;97.00
66381;BME280;53177;52.648;1.214;2024-01-27T12:01:38;102726.34;;;5.71;97.07
66381;BME280;53177;52.648;1.214;2024-01-27T12:04:24;102730.09;;;5.79;97.97
66381;BME280;53177;52.648;1.214;2024-01-27T12:06:49;102721.41;;;5.82;96.24
66381;BME280;53177;52.648;1.214;2024-01-27T12:09:14;102729.34;;;5.83;97.09
66381;BME280;53177;52.648;1.214;2024-01-27T12:11:42;102725.09;;;5.87;96.88
66381;BME280;53177;52.648;1.214;2024-01-27T12:14:07;102711.22;;;5.93;96.85
66381;BME280;53177;52.648;1.214;2024-01-27T12:16:33;102708.44;;;5.86;96.26
66381;BME280;53177;52.648;1.214;2024-01-27T12:18:58;102704.25;;;5.93;96.95
66381;BME280;53177;52.648;1.214;2024-01-27T12:21:24;102707.94;;;6.00;96.30
66381;BME280;53177;52.648;1.214;2024-01-27T12:23:51;102707.31;;;6.10;95.93
66381;BME280;53177;52.648;1.214;2024-01-27T12:26:17;102706.75;;;6.20;95.60
66381;BME280;53177;52.648;1.214;2024-01-27T12:28:45;102699.38;;;6.38;93.62
66381;BME280;53177;52.648;1.214;2024-01-27T12:31:11;102696.31;;;6.56;92.79
66381;BME280;53177;52.648;1.214;2024-01-27T12:33:36;102693.16;;;6.70;92.46
66381;BME280;53177;52.648;1.214;2024-01-27T12:36:02;102685.72;;;6.89;90.26
66381;BME280;53177;52.648;1.214;2024-01-27T12:38:27;102678.69;;;6.88;90.02
66381;BME280;53177;52.648;1.214;2024-01-27T12:40:53;102669.94;;;6.89;89.35
66381;BME280;53177;52.648;1.214;2024-01-27T12:43:18;102675.09;;;6.84;89.11
66381;BME280;53177;52.648;1.214;2024-01-27T12:45:44;102667.31;;;6.89;87.56
66381;BME280;53177;52.648;1.214;2024-01-27T12:48:10;102668.09;;;6.83;87.74
66381;BME280;53177;52.648;1.214;2024-01-27T12:50:35;102665.59;;;6.89;87.02